createdAt,value
2023-05-25T00:00:31.061Z,27.38
2023-05-25T00:01:31.059Z,27.37
2023-05-25T00:02:31.195Z,27.38
2023-05-25T00:03:31.612Z,27.37
2023-05-25T00:04:31.157Z,27.34
2023-05-25T00:05:31.226Z,27.36
2023-05-25T00:06:31.233Z,27.34
2023-05-25T00:07:31.304Z,27.34
2023-05-25T00:08:31.364Z,27.31
2023-05-25T00:09:31.353Z,27.36
2023-05-25T00:10:31.395Z,27.31
2023-05-25T00:11:31.435Z,27.31
2023-05-25T00:12:31.445Z,27.33
2023-05-25T00:13:31.476Z,27.36
2023-05-25T00:14:31.554Z,27.31
2023-05-25T00:15:31.549Z,27.36
2023-05-25T00:16:31.638Z,27.33
2023-05-25T00:17:31.668Z,27.29
2023-05-25T00:18:31.715Z,27.31
2023-05-25T00:19:31.710Z,27.31
2023-05-25T00:20:31.845Z,27.33
2023-05-25T00:21:31.774Z,27.33
2023-05-25T00:22:31.838Z,27.33
2023-05-25T00:23:31.853Z,27.31
2023-05-25T00:24:31.892Z,27.31
2023-05-25T00:25:31.964Z,27.30
2023-05-25T00:26:32.009Z,27.31
2023-05-25T00:27:32.011Z,27.33
2023-05-25T00:28:32.052Z,27.31
2023-05-25T00:29:32.145Z,27.33
2023-05-25T00:30:32.190Z,27.34
2023-05-25T00:31:32.294Z,27.33
2023-05-25T00:32:32.192Z,27.34
2023-05-25T00:33:32.225Z,27.34
2023-05-25T00:34:32.277Z,27.34
2023-05-25T00:35:32.311Z,27.36
2023-05-25T00:36:32.366Z,27.37
2023-05-25T00:37:32.418Z,27.36
2023-05-25T00:38:32.483Z,27.36
2023-05-25T00:39:32.544Z,27.37
2023-05-25T00:40:32.572Z,27.36
2023-05-25T00:41:32.631Z,27.36
2023-05-25T00:42:32.687Z,27.37
2023-05-25T00:43:32.713Z,27.38
2023-05-25T00:44:32.742Z,27.37
2023-05-25T00:45:32.834Z,27.36
2023-05-25T00:46:32.884Z,27.36
2023-05-25T00:47:32.970Z,27.37
2023-05-25T00:48:33.004Z,27.37
2023-05-25T00:49:33.070Z,27.34
2023-05-25T00:50:33.138Z,27.37
2023-05-25T00:51:33.221Z,27.37
2023-05-25T00:52:33.336Z,27.37
2023-05-25T00:53:33.331Z,27.40
2023-05-25T00:54:33.454Z,27.37
2023-05-25T00:55:33.479Z,27.37
2023-05-25T00:56:33.567Z,27.38
2023-05-25T00:57:33.616Z,27.40
2023-05-25T00:58:33.701Z,27.38
2023-05-25T00:59:33.827Z,27.38
2023-05-25T01:00:33.823Z,27.37
2023-05-25T01:01:33.932Z,27.40
2023-05-25T01:02:34.054Z,27.38
2023-05-25T01:03:34.058Z,27.38
2023-05-25T01:04:34.068Z,27.37
2023-05-25T01:05:34.080Z,27.38
2023-05-25T01:06:34.147Z,27.40
2023-05-25T01:07:34.206Z,27.38
2023-05-25T01:08:34.324Z,27.37
2023-05-25T01:09:34.367Z,27.38
2023-05-25T01:10:34.399Z,27.37
2023-05-25T01:11:34.487Z,27.37
2023-05-25T01:12:34.524Z,27.36
2023-05-25T01:13:34.583Z,27.36
2023-05-25T01:14:34.658Z,27.37
2023-05-25T01:15:34.708Z,27.36
2023-05-25T01:16:34.790Z,27.38
2023-05-25T01:17:34.925Z,27.36
2023-05-25T01:18:34.892Z,27.36
2023-05-25T01:19:34.953Z,27.37
2023-05-25T01:20:35.150Z,27.36
2023-05-25T01:21:35.104Z,27.37
2023-05-25T01:22:35.175Z,27.37
2023-05-25T01:23:35.266Z,27.37
2023-05-25T01:24:35.296Z,27.38
2023-05-25T01:25:35.381Z,27.37
2023-05-25T01:26:35.471Z,27.36
2023-05-25T01:27:35.527Z,27.40
2023-05-25T01:28:35.578Z,27.38
2023-05-25T01:29:35.674Z,27.38
2023-05-25T01:30:35.717Z,27.37
2023-05-25T01:31:35.808Z,27.37
2023-05-25T01:32:35.892Z,27.37
2023-05-25T01:33:36.808Z,27.37
2023-05-25T01:34:36.006Z,27.38
2023-05-25T01:35:36.074Z,27.37
2023-05-25T01:36:36.180Z,27.33
2023-05-25T01:37:36.211Z,27.36
2023-05-25T01:38:36.304Z,27.34
2023-05-25T01:39:36.419Z,27.36
2023-05-25T01:40:36.429Z,27.34
2023-05-25T01:41:36.480Z,27.36
2023-05-25T01:42:36.548Z,27.36
2023-05-25T01:43:36.640Z,27.34
2023-05-25T01:44:36.726Z,27.33
2023-05-25T01:45:36.899Z,27.34
2023-05-25T01:46:36.854Z,27.34
2023-05-25T01:47:36.916Z,27.36
2023-05-25T01:48:36.962Z,27.31
2023-05-25T01:49:37.061Z,27.34
2023-05-25T01:50:37.098Z,27.34
2023-05-25T01:51:37.189Z,27.34
2023-05-25T01:52:37.256Z,27.36
2023-05-25T01:53:37.330Z,27.34
2023-05-25T01:54:37.424Z,27.31
2023-05-25T01:55:37.474Z,27.31
2023-05-25T01:56:37.576Z,27.33
2023-05-25T01:57:37.633Z,27.33
2023-05-25T01:58:37.724Z,27.33
2023-05-25T01:59:37.769Z,27.31
2023-05-25T02:00:37.817Z,27.33
2023-05-25T02:01:37.892Z,27.31
2023-05-25T02:02:38.037Z,27.29
2023-05-25T02:03:38.047Z,27.29
2023-05-25T02:04:38.138Z,27.29
2023-05-25T02:05:38.123Z,27.31
2023-05-25T02:06:38.195Z,27.29
2023-05-25T02:07:38.271Z,27.30
2023-05-25T02:08:38.318Z,27.29
2023-05-25T02:09:38.370Z,27.29
2023-05-25T02:10:38.425Z,27.27
2023-05-25T02:11:38.513Z,27.27
2023-05-25T02:12:38.596Z,27.27
2023-05-25T02:13:38.654Z,27.30
2023-05-25T02:14:38.709Z,27.29
2023-05-25T02:15:38.799Z,27.26
2023-05-25T02:16:38.880Z,27.27
2023-05-25T02:17:38.958Z,27.29
2023-05-25T02:18:38.960Z,27.30
2023-05-25T02:19:39.038Z,27.30
2023-05-25T02:20:39.150Z,27.29
2023-05-25T02:21:39.165Z,27.29
2023-05-25T02:22:39.203Z,27.30
2023-05-25T02:23:39.317Z,27.29
2023-05-25T02:24:39.379Z,27.30
2023-05-25T02:25:39.466Z,27.30
2023-05-25T02:26:39.519Z,27.30
2023-05-25T02:27:39.556Z,27.30
2023-05-25T02:28:39.631Z,27.31
2023-05-25T02:29:39.734Z,27.31
2023-05-25T02:30:39.807Z,27.31
2023-05-25T02:31:39.964Z,27.31
2023-05-25T02:32:39.945Z,27.31
2023-05-25T02:33:39.996Z,27.31
2023-05-25T02:34:40.045Z,27.29
2023-05-25T02:35:40.159Z,27.31
2023-05-25T02:36:40.191Z,27.27
2023-05-25T02:37:40.256Z,27.29
2023-05-25T02:38:40.362Z,27.30
2023-05-25T02:39:40.433Z,27.31
2023-05-25T02:40:40.491Z,27.30
2023-05-25T02:41:40.591Z,27.31
2023-05-25T02:42:40.676Z,27.31
2023-05-25T02:43:40.708Z,27.31
2023-05-25T02:44:40.776Z,27.29
2023-05-25T02:45:40.874Z,27.31
2023-05-25T02:46:40.922Z,27.30
2023-05-25T02:47:41.025Z,27.31
2023-05-25T02:48:41.089Z,27.30
2023-05-25T02:49:41.181Z,27.30
2023-05-25T02:50:41.214Z,27.33
2023-05-25T02:51:41.267Z,27.30
2023-05-25T02:52:41.351Z,27.31
2023-05-25T02:53:41.408Z,27.30
2023-05-25T02:54:41.461Z,27.31
2023-05-25T02:55:41.627Z,27.29
2023-05-25T02:56:41.577Z,27.31
2023-05-25T02:57:41.650Z,27.31
2023-05-25T02:58:41.743Z,27.31
2023-05-25T02:59:41.796Z,27.33
2023-05-25T03:00:41.895Z,27.31
2023-05-25T03:01:41.949Z,27.33
2023-05-25T03:02:42.045Z,27.31
2023-05-25T03:03:42.088Z,27.30
2023-05-25T03:04:42.174Z,27.33
2023-05-25T03:05:42.335Z,27.31
2023-05-25T03:06:42.300Z,27.33
2023-05-25T03:07:42.345Z,27.31
2023-05-25T03:08:42.373Z,27.30
2023-05-25T03:09:42.449Z,27.31
2023-05-25T03:10:42.500Z,27.30
2023-05-25T03:11:42.555Z,27.30
2023-05-25T03:12:42.633Z,27.29
2023-05-25T03:13:42.700Z,27.30
2023-05-25T03:14:42.769Z,27.29
2023-05-25T03:15:42.986Z,27.31
2023-05-25T03:16:42.938Z,27.30
2023-05-25T03:17:43.157Z,27.26
2023-05-25T03:18:43.044Z,27.30
2023-05-25T03:19:43.141Z,27.29
2023-05-25T03:20:43.189Z,27.30
2023-05-25T03:21:43.257Z,27.31
2023-05-25T03:22:43.320Z,27.29
2023-05-25T03:23:43.363Z,27.30
2023-05-25T03:24:43.455Z,27.29
2023-05-25T03:25:43.677Z,27.30
2023-05-25T03:26:43.542Z,27.30
2023-05-25T03:27:43.597Z,27.30
2023-05-25T03:28:43.634Z,27.30
2023-05-25T03:29:43.689Z,27.31
2023-05-25T03:30:43.785Z,27.30
2023-05-25T03:31:43.881Z,27.31
2023-05-25T03:32:43.889Z,27.29
2023-05-25T03:33:43.941Z,27.27
2023-05-25T03:34:43.999Z,27.31
2023-05-25T03:35:44.199Z,27.29
2023-05-25T03:36:44.140Z,27.30
2023-05-25T03:37:44.184Z,27.30
2023-05-25T03:38:44.213Z,27.29
2023-05-25T03:39:44.263Z,27.30
2023-05-25T03:40:44.291Z,27.29
2023-05-25T03:41:44.393Z,27.29
2023-05-25T03:42:44.412Z,27.29
2023-05-25T03:43:44.452Z,27.29
2023-05-25T03:44:44.498Z,27.26
2023-05-25T03:45:44.699Z,27.29
2023-05-25T03:46:44.654Z,27.27
2023-05-25T03:47:44.706Z,27.27
2023-05-25T03:48:44.720Z,27.29
2023-05-25T03:49:44.796Z,27.30
2023-05-25T03:50:44.858Z,27.29
2023-05-25T03:51:44.890Z,27.29
2023-05-25T03:52:44.957Z,27.29
2023-05-25T03:53:45.028Z,27.29
2023-05-25T03:54:45.094Z,27.27
2023-05-25T03:55:45.354Z,27.26
2023-05-25T03:56:45.228Z,27.27
2023-05-25T03:57:45.308Z,27.26
2023-05-25T03:58:45.375Z,27.26
2023-05-25T03:59:45.429Z,27.27
2023-05-25T04:00:45.499Z,27.26
2023-05-25T04:01:45.538Z,27.27
2023-05-25T04:02:45.717Z,27.27
2023-05-25T04:03:45.839Z,27.26
2023-05-25T04:04:45.793Z,27.27
2023-05-25T04:05:46.121Z,27.26
2023-05-25T04:06:45.925Z,27.23
2023-05-25T04:07:46.014Z,27.24
2023-05-25T04:08:46.073Z,27.23
2023-05-25T04:09:46.216Z,27.26
2023-05-25T04:10:46.246Z,27.26
2023-05-25T04:11:46.288Z,27.24
2023-05-25T04:12:46.354Z,27.24
2023-05-25T04:13:46.405Z,27.26
2023-05-25T04:14:46.437Z,27.24
2023-05-25T04:15:46.644Z,27.24
2023-05-25T04:16:46.576Z,27.26
2023-05-25T04:17:46.602Z,27.23
2023-05-25T04:18:46.650Z,27.24
2023-05-25T04:19:46.685Z,27.26
2023-05-25T04:20:46.739Z,27.26
2023-05-25T04:21:46.777Z,27.23
2023-05-25T04:22:46.819Z,27.23
2023-05-25T04:23:46.880Z,27.23
2023-05-25T04:24:46.916Z,27.21
2023-05-25T04:25:47.107Z,27.26
2023-05-25T04:26:47.027Z,27.23
2023-05-25T04:27:47.058Z,27.24
2023-05-25T04:28:47.085Z,27.21
2023-05-25T04:29:47.139Z,27.27
2023-05-25T04:30:47.152Z,27.24
2023-05-25T04:31:47.293Z,27.29
2023-05-25T04:32:47.314Z,27.26
2023-05-25T04:33:47.378Z,27.23
2023-05-25T04:34:47.401Z,27.24
2023-05-25T04:35:47.446Z,27.24
2023-05-25T04:36:47.532Z,27.21
2023-05-25T04:37:47.567Z,27.23
2023-05-25T04:38:47.620Z,27.23
2023-05-25T04:39:47.680Z,27.23
2023-05-25T04:40:47.725Z,27.23
2023-05-25T04:41:47.734Z,27.21
2023-05-25T04:42:47.817Z,27.23
2023-05-25T04:44:04.726Z,27.21
2023-05-25T04:44:48.860Z,27.21
2023-05-25T04:45:48.077Z,27.21
2023-05-25T04:46:47.883Z,27.26
2023-05-25T04:47:47.914Z,27.23
2023-05-25T04:48:47.911Z,27.23
2023-05-25T04:49:47.928Z,27.24
2023-05-25T04:50:47.920Z,27.26
2023-05-25T04:51:47.945Z,27.27
2023-05-25T04:52:47.956Z,27.24
2023-05-25T04:53:47.955Z,27.26
2023-05-25T04:54:47.979Z,27.26
2023-05-25T04:55:48.078Z,27.24
2023-05-25T04:56:48.091Z,27.24
2023-05-25T04:57:48.201Z,27.24
2023-05-25T04:58:48.246Z,27.24
2023-05-25T04:59:48.319Z,27.26
2023-05-25T05:00:49.714Z,27.27
2023-05-25T05:01:55.495Z,27.27
2023-05-25T05:02:48.559Z,27.24
2023-05-25T05:03:48.582Z,27.26
2023-05-25T05:04:48.542Z,27.27
2023-05-25T05:05:48.561Z,27.30
2023-05-25T05:06:48.592Z,27.29
2023-05-25T05:07:48.590Z,27.27
2023-05-25T05:08:48.608Z,27.29
2023-05-25T05:09:49.435Z,27.30
2023-05-25T05:10:48.619Z,27.29
2023-05-25T05:11:48.670Z,27.29
2023-05-25T05:12:48.688Z,27.29
2023-05-25T05:13:48.686Z,27.29
2023-05-25T05:14:48.680Z,27.33
2023-05-25T05:15:48.697Z,27.31
2023-05-25T05:16:49.756Z,27.31
2023-05-25T05:17:48.853Z,27.34
2023-05-25T05:18:48.762Z,27.33
2023-05-25T05:19:48.780Z,27.33
2023-05-25T05:20:48.832Z,27.36
2023-05-25T05:21:49.755Z,27.33
2023-05-25T05:22:48.783Z,27.34
2023-05-25T05:23:48.828Z,27.34
2023-05-25T05:24:48.830Z,27.33
2023-05-25T05:25:48.807Z,27.36
2023-05-25T05:26:58.405Z,27.36
2023-05-25T05:27:49.858Z,27.37
2023-05-25T05:28:48.848Z,27.34
2023-05-25T05:29:48.921Z,27.34
2023-05-25T05:30:48.912Z,27.36
2023-05-25T05:31:48.917Z,27.38
2023-05-25T05:32:48.959Z,27.33
2023-05-25T05:33:48.934Z,27.37
2023-05-25T05:34:48.949Z,27.38
2023-05-25T05:35:48.934Z,27.38
2023-05-25T05:36:57.511Z,27.37
2023-05-25T05:37:50.453Z,27.36
2023-05-25T05:38:49.009Z,27.36
2023-05-25T05:39:49.013Z,27.37
2023-05-25T05:40:49.098Z,27.37
2023-05-25T05:41:49.079Z,27.36
2023-05-25T05:42:49.082Z,27.37
2023-05-25T05:43:49.103Z,27.30
2023-05-25T05:44:49.111Z,27.26
2023-05-25T05:47:08.372Z,27.18
2023-05-25T05:48:08.158Z,27.15
2023-05-25T05:49:08.115Z,27.11
2023-05-25T05:50:08.102Z,27.09
2023-05-25T05:51:08.101Z,27.06
2023-05-25T05:52:08.073Z,27.03
2023-05-25T05:53:08.318Z,26.97
2023-05-25T05:54:08.027Z,26.90
2023-05-25T05:55:08.044Z,26.85
2023-05-25T05:56:08.002Z,26.83
2023-05-25T05:57:08.008Z,26.76
2023-05-25T05:58:07.994Z,26.73
2023-05-25T05:59:07.971Z,26.70
2023-05-25T06:00:07.968Z,26.70
2023-05-25T06:01:07.982Z,26.63
2023-05-25T06:02:07.990Z,26.66
2023-05-25T06:03:07.984Z,26.63
2023-05-25T06:04:07.914Z,26.62
2023-05-25T06:05:07.969Z,26.63
2023-05-25T06:06:08.057Z,26.66
2023-05-25T06:07:07.842Z,26.63
2023-05-25T06:08:07.833Z,26.60
2023-05-25T06:09:07.829Z,26.53
2023-05-25T06:10:07.853Z,26.53
2023-05-25T06:11:07.813Z,26.50
2023-05-25T06:12:07.811Z,26.46
2023-05-25T06:13:08.879Z,26.43
2023-05-25T06:14:07.874Z,26.39
2023-05-25T06:15:07.872Z,26.39
2023-05-25T06:16:08.945Z,26.35
2023-05-25T06:17:08.857Z,26.32
2023-05-25T06:18:07.861Z,26.28
2023-05-25T06:19:07.834Z,26.28
2023-05-25T06:20:07.810Z,26.22
2023-05-25T06:21:07.762Z,26.24
2023-05-25T06:22:07.888Z,26.27
2023-05-25T06:23:07.823Z,26.28
2023-05-25T06:24:07.800Z,26.29
2023-05-25T06:25:07.818Z,26.34
2023-05-25T06:26:08.779Z,26.36
2023-05-25T06:27:07.762Z,26.39
2023-05-25T06:28:07.756Z,26.45
2023-05-25T06:29:07.866Z,26.48
2023-05-25T06:30:07.731Z,26.52
2023-05-25T06:31:07.756Z,26.55
2023-05-25T06:32:07.775Z,26.59
2023-05-25T06:33:07.838Z,26.62
2023-05-25T06:34:07.667Z,26.68
2023-05-25T06:35:08.097Z,26.70
2023-05-25T06:36:07.734Z,26.76
2023-05-25T06:37:07.825Z,26.78
2023-05-25T06:38:07.856Z,26.80
2023-05-25T06:39:07.845Z,26.79
2023-05-25T06:40:07.899Z,26.83
2023-05-25T06:41:07.902Z,26.83
2023-05-25T06:42:07.952Z,26.83
2023-05-25T06:43:07.967Z,26.86
2023-05-25T06:44:08.335Z,26.90
2023-05-25T06:45:08.068Z,26.89
2023-05-25T06:46:08.183Z,26.86
2023-05-25T06:47:08.062Z,26.82
2023-05-25T06:48:08.199Z,26.85
2023-05-25T06:49:08.383Z,26.83
2023-05-25T06:50:08.242Z,26.83
2023-05-25T06:51:08.180Z,26.83
2023-05-25T06:52:08.207Z,26.83
2023-05-25T06:53:08.209Z,26.80
2023-05-25T06:54:08.373Z,26.80
2023-05-25T06:55:08.331Z,26.79
2023-05-25T06:56:08.385Z,26.79
2023-05-25T06:57:08.375Z,26.73
2023-05-25T06:58:08.387Z,26.79
2023-05-25T06:59:08.409Z,26.75
2023-05-25T07:00:08.460Z,26.70
2023-05-25T07:01:08.498Z,26.66
2023-05-25T07:02:08.518Z,26.62
2023-05-25T07:03:08.557Z,26.59
2023-05-25T07:04:08.843Z,26.43
2023-05-25T07:05:08.665Z,26.46
2023-05-25T07:06:08.619Z,26.50
2023-05-25T07:07:08.676Z,26.45
2023-05-25T07:08:08.727Z,26.49
2023-05-25T07:09:08.759Z,26.56
2023-05-25T07:10:08.860Z,26.49
2023-05-25T07:11:08.801Z,26.49
2023-05-25T07:12:08.913Z,26.45
2023-05-25T07:13:08.963Z,26.48
2023-05-25T07:14:08.950Z,26.46
2023-05-25T07:15:09.358Z,26.50
2023-05-25T07:16:09.064Z,26.41
2023-05-25T07:17:09.103Z,26.46
2023-05-25T07:18:09.140Z,26.55
2023-05-25T07:19:09.206Z,26.59
2023-05-25T07:20:09.223Z,26.62
2023-05-25T07:21:09.216Z,26.63
2023-05-25T07:22:09.271Z,26.64
2023-05-25T07:23:09.292Z,26.69
2023-05-25T07:24:09.354Z,26.75
2023-05-25T07:25:09.397Z,26.78
2023-05-25T07:26:09.393Z,26.75
2023-05-25T07:27:09.369Z,26.76
2023-05-25T07:28:09.426Z,26.70
2023-05-25T07:29:09.424Z,26.73
2023-05-25T07:30:09.470Z,26.73
2023-05-25T07:31:09.509Z,26.75
2023-05-25T07:32:09.520Z,26.72
2023-05-25T07:33:09.647Z,26.70
2023-05-25T07:34:09.612Z,26.70
2023-05-25T07:35:09.647Z,26.72
2023-05-25T07:36:09.622Z,26.72
2023-05-25T07:37:09.681Z,26.75
2023-05-25T07:38:09.705Z,26.73
2023-05-25T07:39:09.725Z,26.76
2023-05-25T07:40:09.740Z,26.76
2023-05-25T07:41:09.785Z,26.68
2023-05-25T07:42:09.833Z,26.76
2023-05-25T07:43:09.848Z,26.75
2023-05-25T07:44:09.903Z,26.76
2023-05-25T07:45:09.917Z,26.78
2023-05-25T07:46:09.957Z,26.79
2023-05-25T07:47:10.083Z,26.78
2023-05-25T07:48:10.041Z,26.78
2023-05-25T07:49:10.040Z,26.79
2023-05-25T07:50:10.129Z,26.79
2023-05-25T07:51:10.126Z,26.78
2023-05-25T07:52:10.153Z,26.72
2023-05-25T07:53:10.190Z,26.72
2023-05-25T07:54:10.229Z,26.68
2023-05-25T07:55:10.287Z,26.63
2023-05-25T07:56:10.753Z,26.63
2023-05-25T07:57:10.384Z,26.62
2023-05-25T07:58:10.442Z,26.56
2023-05-25T07:59:10.498Z,26.50
2023-05-25T08:00:10.496Z,26.46
2023-05-25T08:01:10.548Z,26.43
2023-05-25T08:02:10.610Z,26.39
2023-05-25T08:03:10.862Z,26.35
2023-05-25T08:04:10.776Z,26.32
2023-05-25T08:05:10.845Z,26.32
2023-05-25T08:06:10.762Z,26.32
2023-05-25T08:07:10.837Z,26.28
2023-05-25T08:08:10.893Z,26.29
2023-05-25T08:09:10.915Z,26.31
2023-05-25T08:10:10.945Z,26.31
2023-05-25T08:11:10.990Z,26.34
2023-05-25T08:12:30.211Z,26.38
2023-05-25T08:13:11.955Z,26.41
2023-05-25T08:14:10.936Z,26.43
2023-05-25T08:15:10.916Z,26.46
2023-05-25T08:16:10.916Z,26.49
2023-05-25T08:17:10.905Z,26.50
2023-05-25T08:18:10.920Z,26.48
2023-05-25T08:19:10.848Z,26.50
2023-05-25T08:20:10.927Z,26.46
2023-05-25T08:21:10.872Z,26.50
2023-05-25T08:22:10.856Z,26.48
2023-05-25T08:23:10.891Z,26.49
2023-05-25T08:24:10.910Z,26.52
2023-05-25T08:25:10.970Z,26.55
2023-05-25T08:26:28.658Z,26.55
2023-05-25T08:27:12.014Z,26.58
2023-05-25T08:28:10.994Z,26.59
2023-05-25T08:29:10.978Z,26.60
2023-05-25T08:30:10.965Z,26.60
2023-05-25T08:31:10.957Z,26.58
2023-05-25T08:32:10.950Z,26.55
2023-05-25T08:33:10.967Z,26.56
2023-05-25T08:34:10.932Z,26.58
2023-05-25T08:35:10.949Z,26.58
2023-05-25T08:36:10.884Z,26.56
2023-05-25T08:37:10.855Z,26.60
2023-05-25T08:38:10.915Z,26.60
2023-05-25T08:39:10.986Z,26.62
2023-05-25T08:40:10.990Z,26.64
2023-05-25T08:41:11.038Z,26.66
2023-05-25T08:42:11.102Z,26.68
2023-05-25T08:43:11.121Z,26.64
2023-05-25T08:44:11.151Z,26.69
2023-05-25T08:45:22.559Z,26.70
2023-05-25T08:46:12.146Z,26.59
2023-05-25T08:47:11.167Z,26.59
2023-05-25T08:48:12.078Z,26.58
2023-05-25T08:49:11.195Z,26.64
2023-05-25T08:50:11.460Z,26.72
2023-05-25T08:51:11.731Z,26.75
2023-05-25T08:52:11.068Z,26.73
2023-05-25T08:53:11.124Z,26.69
2023-05-25T08:54:10.991Z,26.69
2023-05-25T08:55:11.045Z,26.73
2023-05-25T08:56:11.396Z,26.73
2023-05-25T08:57:11.031Z,26.75
2023-05-25T08:58:11.956Z,26.75
2023-05-25T08:59:10.930Z,26.76
2023-05-25T09:00:11.186Z,26.72
2023-05-25T09:01:11.378Z,26.73
2023-05-25T09:02:11.011Z,26.73
2023-05-25T09:03:10.923Z,26.70
2023-05-25T09:04:10.887Z,26.69
2023-05-25T09:05:10.837Z,26.69
2023-05-25T09:06:10.832Z,26.69
2023-05-25T09:07:11.354Z,26.66
2023-05-25T09:08:10.790Z,26.68
2023-05-25T09:09:10.796Z,26.70
2023-05-25T09:10:11.227Z,26.73
2023-05-25T09:11:10.907Z,26.72
2023-05-25T09:12:10.934Z,26.72
2023-05-25T09:13:21.342Z,26.72
2023-05-25T09:14:11.947Z,26.72
2023-05-25T09:15:10.945Z,26.70
2023-05-25T09:16:11.457Z,26.72
2023-05-25T09:17:10.921Z,26.72
2023-05-25T09:19:10.887Z,26.75
2023-05-25T09:20:11.194Z,26.76
2023-05-25T09:21:10.838Z,26.80
2023-05-25T09:23:10.785Z,26.86
2023-05-25T09:24:10.800Z,26.91
2023-05-25T09:25:10.818Z,26.96
2023-05-25T09:26:10.793Z,26.97
2023-05-25T09:27:10.744Z,26.97
2023-05-25T09:28:25.744Z,26.99
2023-05-25T09:29:11.684Z,27.00
2023-05-25T09:30:10.709Z,27.00
2023-05-25T09:31:10.978Z,27.07
2023-05-25T09:32:10.720Z,27.10
2023-05-25T09:33:10.643Z,27.14
2023-05-25T09:34:10.588Z,27.21
2023-05-25T09:35:10.570Z,27.24
2023-05-25T09:36:10.587Z,27.23
2023-05-25T09:37:10.662Z,27.26
2023-05-25T09:38:10.704Z,27.30
2023-05-25T09:39:10.610Z,27.29
2023-05-25T09:40:10.481Z,27.30
2023-05-25T09:41:11.198Z,27.27
2023-05-25T09:42:10.456Z,27.30
2023-05-25T09:43:10.425Z,27.37
2023-05-25T09:44:11.957Z,27.40
2023-05-25T09:45:10.354Z,27.37
2023-05-25T09:46:10.439Z,27.38
2023-05-25T09:47:10.456Z,27.40
2023-05-25T09:48:10.393Z,27.37
2023-05-25T09:49:10.265Z,27.42
2023-05-25T09:50:10.298Z,27.47
2023-05-25T09:51:10.250Z,27.47
2023-05-25T09:52:10.417Z,27.48
2023-05-25T09:53:10.366Z,27.54
2023-05-25T09:54:10.166Z,27.55
2023-05-25T09:55:10.124Z,27.57
2023-05-25T09:56:10.078Z,27.55
2023-05-25T09:57:10.445Z,27.58
2023-05-25T09:58:10.127Z,27.62
2023-05-25T09:59:10.035Z,27.65
2023-05-25T10:00:10.007Z,27.66
2023-05-25T10:01:10.055Z,27.68
2023-05-25T10:02:10.861Z,27.71
2023-05-25T10:03:10.058Z,27.73
2023-05-25T10:04:10.038Z,27.75
2023-05-25T10:05:10.086Z,27.81
2023-05-25T10:06:10.071Z,27.82
2023-05-25T10:07:10.090Z,27.87
2023-05-25T10:08:10.152Z,27.88
2023-05-25T10:09:10.173Z,27.89
2023-05-25T10:10:10.200Z,27.91
2023-05-25T10:11:10.223Z,27.89
2023-05-25T10:12:10.375Z,27.91
2023-05-25T10:13:10.268Z,27.93
2023-05-25T10:14:11.747Z,27.95
2023-05-25T10:15:10.372Z,27.95
2023-05-25T10:16:10.642Z,27.93
2023-05-25T10:17:11.888Z,27.98
2023-05-25T10:18:11.133Z,27.98
2023-05-25T10:19:10.450Z,27.98
2023-05-25T10:20:10.482Z,27.98
2023-05-25T10:21:10.509Z,28.01
2023-05-25T10:22:10.501Z,28.02
2023-05-25T10:23:10.579Z,28.02
2023-05-25T10:24:10.575Z,28.03
2023-05-25T10:25:10.554Z,28.06
2023-05-25T10:26:11.148Z,28.03
2023-05-25T10:28:11.574Z,28.11
2023-05-25T10:29:10.519Z,28.11
2023-05-25T10:30:10.525Z,28.12
2023-05-25T10:31:10.509Z,28.12
2023-05-25T10:32:10.459Z,28.13
2023-05-25T10:33:10.438Z,28.16
2023-05-25T10:34:10.390Z,28.15
2023-05-25T10:35:10.390Z,28.13
2023-05-25T10:36:11.518Z,28.15
2023-05-25T10:37:10.451Z,28.15
2023-05-25T10:38:10.278Z,28.13
2023-05-25T10:39:10.450Z,28.15
2023-05-25T10:40:10.349Z,28.13
2023-05-25T10:41:10.377Z,28.12
2023-05-25T10:42:10.436Z,28.11
2023-05-25T10:43:10.387Z,28.12
2023-05-25T10:44:10.482Z,28.15
2023-05-25T10:45:10.403Z,28.11
2023-05-25T10:46:10.412Z,28.11
2023-05-25T10:47:11.126Z,28.11
2023-05-25T10:48:10.587Z,28.06
2023-05-25T10:49:10.517Z,28.03
2023-05-25T10:50:10.545Z,28.05
2023-05-25T10:51:12.000Z,28.06
2023-05-25T10:52:10.568Z,28.08
2023-05-25T10:53:10.952Z,28.09
2023-05-25T10:54:10.630Z,28.09
2023-05-25T10:55:10.649Z,28.08
2023-05-25T10:56:10.775Z,28.05
2023-05-25T10:57:10.715Z,28.06
2023-05-25T10:58:10.968Z,28.05
2023-05-25T10:59:10.702Z,27.99
2023-05-25T11:00:10.775Z,28.03
2023-05-25T11:01:10.853Z,28.01
2023-05-25T11:02:10.765Z,28.01
2023-05-25T11:03:11.036Z,27.99
2023-05-25T11:04:10.902Z,27.99
2023-05-25T11:05:10.815Z,27.95
2023-05-25T11:06:10.820Z,27.96
2023-05-25T11:07:10.838Z,27.99
2023-05-25T11:08:10.963Z,27.95
2023-05-25T11:09:11.468Z,27.98
2023-05-25T11:10:10.883Z,27.96
2023-05-25T11:11:10.945Z,27.98
2023-05-25T11:12:10.967Z,27.96
2023-05-25T11:13:11.022Z,27.96
2023-05-25T11:14:10.978Z,27.96
2023-05-25T11:15:11.019Z,27.96
2023-05-25T11:16:11.080Z,27.98
2023-05-25T11:17:11.201Z,27.96
2023-05-25T11:18:11.466Z,27.95
2023-05-25T11:19:11.156Z,27.92
2023-05-25T11:20:11.204Z,27.92
2023-05-25T11:21:11.171Z,27.92
2023-05-25T11:22:11.205Z,27.95
2023-05-25T11:23:11.462Z,27.98
2023-05-25T11:24:11.243Z,27.93
2023-05-25T11:25:11.243Z,27.98
2023-05-25T11:26:11.312Z,27.96
2023-05-25T11:27:11.345Z,27.96
2023-05-25T11:28:11.390Z,27.95
2023-05-25T11:29:11.387Z,27.95
2023-05-25T11:30:11.438Z,27.96
2023-05-25T11:31:11.466Z,27.98
2023-05-25T11:32:11.504Z,27.93
2023-05-25T11:33:11.985Z,27.98
2023-05-25T11:34:12.549Z,27.99
2023-05-25T11:35:11.551Z,27.98
2023-05-25T11:36:11.601Z,28.01
2023-05-25T11:37:12.283Z,28.01
2023-05-25T11:38:11.634Z,28.03
2023-05-25T11:39:21.923Z,28.03
2023-05-25T11:40:12.654Z,28.05
2023-05-25T11:41:11.588Z,28.05
2023-05-25T11:42:11.546Z,28.05
2023-05-25T11:43:11.525Z,28.06
2023-05-25T11:44:11.503Z,28.05
2023-05-25T11:45:11.488Z,28.05
2023-05-25T11:46:11.471Z,28.08
2023-05-25T11:47:11.404Z,28.05
2023-05-25T11:48:11.406Z,28.05
2023-05-25T11:49:11.394Z,28.06
2023-05-25T11:50:11.403Z,28.06
2023-05-25T11:51:11.422Z,28.03
2023-05-25T11:52:11.428Z,28.11
2023-05-25T11:53:11.493Z,28.06
2023-05-25T11:54:11.458Z,28.08
2023-05-25T11:55:11.503Z,28.08
2023-05-25T11:56:12.572Z,28.09
2023-05-25T11:57:11.615Z,28.09
2023-05-25T11:58:11.690Z,28.06
2023-05-25T11:59:11.755Z,28.09
2023-05-25T12:00:11.713Z,28.09
2023-05-25T12:01:11.714Z,28.09
2023-05-25T12:02:11.781Z,28.08
2023-05-25T12:03:11.857Z,28.08
2023-05-25T12:04:11.981Z,28.09
2023-05-25T12:05:11.886Z,28.08
2023-05-25T12:06:11.828Z,28.09
2023-05-25T12:07:11.828Z,28.09
2023-05-25T12:08:11.862Z,28.11
2023-05-25T12:09:11.901Z,28.09
2023-05-25T12:10:11.948Z,28.06
2023-05-25T12:11:11.941Z,28.09
2023-05-25T12:12:11.996Z,28.09
2023-05-25T12:13:11.960Z,28.11
2023-05-25T12:14:12.050Z,28.12
2023-05-25T12:15:12.039Z,28.11
2023-05-25T12:16:12.024Z,28.08
2023-05-25T12:17:12.211Z,28.13
2023-05-25T12:18:12.060Z,28.12
2023-05-25T12:19:12.087Z,28.13
2023-05-25T12:20:12.156Z,28.15
2023-05-25T12:21:12.118Z,28.16
2023-05-25T12:22:12.120Z,28.18
2023-05-25T12:23:12.133Z,28.16
2023-05-25T12:24:12.220Z,28.16
2023-05-25T12:25:12.227Z,28.16
2023-05-25T12:26:12.221Z,28.18
2023-05-25T12:27:12.211Z,28.18
2023-05-25T12:28:12.191Z,28.19
2023-05-25T12:29:12.173Z,28.19
2023-05-25T12:30:12.144Z,28.23
2023-05-25T12:31:12.221Z,28.24
2023-05-25T12:32:12.186Z,28.22
2023-05-25T12:33:12.257Z,28.22
2023-05-25T12:34:12.196Z,28.24
2023-05-25T12:35:12.179Z,28.26
2023-05-25T12:36:12.157Z,28.23
2023-05-25T12:37:12.204Z,28.23
2023-05-25T12:38:12.167Z,28.24
2023-05-25T12:39:12.182Z,28.24
2023-05-25T12:40:12.221Z,28.24
2023-05-25T12:41:12.220Z,28.26
2023-05-25T12:42:12.231Z,28.24
2023-05-25T12:43:12.350Z,28.27
2023-05-25T12:44:12.252Z,28.29
2023-05-25T12:45:12.260Z,28.26
2023-05-25T12:46:12.360Z,28.24
2023-05-25T12:47:12.299Z,28.27
2023-05-25T12:48:12.355Z,28.29
2023-05-25T12:49:12.342Z,28.27
2023-05-25T12:50:12.344Z,28.29
2023-05-25T12:51:12.371Z,28.30
2023-05-25T12:52:12.373Z,28.30
2023-05-25T12:53:12.393Z,28.30
2023-05-25T12:54:12.377Z,28.27
2023-05-25T12:55:12.424Z,28.29
2023-05-25T12:56:12.391Z,28.29
2023-05-25T12:57:12.441Z,28.30